sensor_id;sensor_type;location;lat;lon;timestamp;P1;durP1;ratioP1;P2;durP2;ratioP2
70796;SDS011;63842;52.144;5.360;2024-02-04T00:00:09;11.63;;;5.35;;
70796;SDS011;63842;52.144;5.360;2024-02-04T00:02:37;11.95;;;5.10;;
70796;SDS011;63842;52.144;5.360;2024-02-04T00:05:05;10.70;;;5.07;;
70796;SDS011;63842;52.144;5.360;2024-02-04T00:07:32;11.35;;;4.95;;
70796;SDS011;63842;52.144;5.360;2024-02-04T00:10:00;9.57;;;4.40;;
70796;SDS011;63842;52.144;5.360;2024-02-04T00:12:27;9.18;;;3.90;;
70796;SDS011;63842;52.144;5.360;2024-02-04T00:14:54;10.52;;;3.42;;
70796;SDS011;63842;52.144;5.360;2024-02-04T00:17:22;8.35;;;3.30;;
70796;SDS011;63842;52.144;5.360;2024-02-04T00:19:50;9.23;;;3.60;;
70796;SDS011;63842;52.144;5.360;2024-02-04T00:22:17;10.68;;;3.55;;
70796;SDS011;63842;52.144;5.360;2024-02-04T00:24:46;9.80;;;3.90;;
70796;SDS011;63842;52.144;5.360;2024-02-04T00:27:14;10.63;;;3.58;;
70796;SDS011;63842;52.144;5.360;2024-02-04T00:29:41;12.93;;;3.85;;
70796;SDS011;63842;52.144;5.360;2024-02-04T00:32:08;10.60;;;4.00;;
70796;SDS011;63842;52.144;5.360;2024-02-04T00:34:36;8.75;;;3.53;;
70796;SDS011;63842;52.144;5.360;2024-02-04T00:37:04;9.77;;;3.75;;
70796;SDS011;63842;52.144;5.360;2024-02-04T00:39:32;9.23;;;3.92;;
70796;SDS011;63842;52.144;5.360;2024-02-04T00:41:59;11.40;;;3.85;;
70796;SDS011;63842;52.144;5.360;2024-02-04T00:44:27;10.30;;;3.65;;
70796;SDS011;63842;52.144;5.360;2024-02-04T00:46:54;10.82;;;4.22;;
70796;SDS011;63842;52.144;5.360;2024-02-04T00:49:22;10.93;;;4.07;;
70796;SDS011;63842;52.144;5.360;2024-02-04T00:51:49;12.75;;;4.40;;
70796;SDS011;63842;52.144;5.360;2024-02-04T00:54:17;13.95;;;4.63;;
70796;SDS011;63842;52.144;5.360;2024-02-04T00:56:44;13.65;;;5.07;;
70796;SDS011;63842;52.144;5.360;2024-02-04T00:59:12;13.80;;;5.50;;
70796;SDS011;63842;52.144;5.360;2024-02-04T01:01:39;15.20;;;5.03;;
70796;SDS011;63842;52.144;5.360;2024-02-04T01:04:07;15.68;;;5.93;;
70796;SDS011;63842;52.144;5.360;2024-02-04T01:06:37;15.93;;;5.78;;
70796;SDS011;63842;52.144;5.360;2024-02-04T01:09:25;13.05;;;5.72;;
70796;SDS011;63842;52.144;5.360;2024-02-04T01:11:52;16.00;;;5.90;;
70796;SDS011;63842;52.144;5.360;2024-02-04T01:14:20;17.77;;;6.22;;
70796;SDS011;63842;52.144;5.360;2024-02-04T01:16:47;16.90;;;6.63;;
70796;SDS011;63842;52.144;5.360;2024-02-04T01:19:15;21.67;;;6.30;;
70796;SDS011;63842;52.144;5.360;2024-02-04T01:21:43;17.02;;;6.22;;
70796;SDS011;63842;52.144;5.360;2024-02-04T01:24:11;19.40;;;6.72;;
70796;SDS011;63842;52.144;5.360;2024-02-04T01:26:41;15.65;;;6.30;;
70796;SDS011;63842;52.144;5.360;2024-02-04T01:29:08;19.10;;;6.20;;
70796;SDS011;63842;52.144;5.360;2024-02-04T01:31:36;20.10;;;5.97;;
70796;SDS011;63842;52.144;5.360;2024-02-04T01:34:04;16.58;;;6.00;;
70796;SDS011;63842;52.144;5.360;2024-02-04T01:36:31;15.90;;;6.20;;
70796;SDS011;63842;52.144;5.360;2024-02-04T01:38:59;18.50;;;6.22;;
70796;SDS011;63842;52.144;5.360;2024-02-04T01:41:27;16.65;;;6.43;;
70796;SDS011;63842;52.144;5.360;2024-02-04T01:43:54;17.80;;;5.78;;
70796;SDS011;63842;52.144;5.360;2024-02-04T01:46:22;17.08;;;6.03;;
70796;SDS011;63842;52.144;5.360;2024-02-04T01:48:49;19.30;;;5.70;;
70796;SDS011;63842;52.144;5.360;2024-02-04T01:51:18;17.23;;;5.88;;
70796;SDS011;63842;52.144;5.360;2024-02-04T01:53:46;16.52;;;5.53;;
70796;SDS011;63842;52.144;5.360;2024-02-04T01:56:15;17.15;;;5.47;;
70796;SDS011;63842;52.144;5.360;2024-02-04T01:58:42;13.43;;;5.55;;
70796;SDS011;63842;52.144;5.360;2024-02-04T02:01:15;15.40;;;5.57;;
70796;SDS011;63842;52.144;5.360;2024-02-04T02:03:43;15.60;;;5.78;;
70796;SDS011;63842;52.144;5.360;2024-02-04T02:06:11;14.88;;;5.57;;
70796;SDS011;63842;52.144;5.360;2024-02-04T02:11:27;17.85;;;5.55;;
70796;SDS011;63842;52.144;5.360;2024-02-04T02:14:00;15.48;;;5.88;;
70796;SDS011;63842;52.144;5.360;2024-02-04T02:16:28;20.48;;;6.03;;
70796;SDS011;63842;52.144;5.360;2024-02-04T02:19:03;13.38;;;5.57;;
70796;SDS011;63842;52.144;5.360;2024-02-04T02:24:11;17.63;;;5.90;;
70796;SDS011;63842;52.144;5.360;2024-02-04T02:26:41;15.98;;;5.85;;
70796;SDS011;63842;52.144;5.360;2024-02-04T02:29:09;15.25;;;5.80;;
70796;SDS011;63842;52.144;5.360;2024-02-04T02:31:37;15.63;;;5.95;;
70796;SDS011;63842;52.144;5.360;2024-02-04T02:34:14;14.43;;;5.50;;
70796;SDS011;63842;52.144;5.360;2024-02-04T02:36:45;16.40;;;5.32;;
70796;SDS011;63842;52.144;5.360;2024-02-04T02:39:24;15.90;;;5.28;;
70796;SDS011;63842;52.144;5.360;2024-02-04T02:41:55;11.75;;;5.10;;
70796;SDS011;63842;52.144;5.360;2024-02-04T02:44:25;15.80;;;5.10;;
70796;SDS011;63842;52.144;5.360;2024-02-04T02:46:54;13.35;;;4.70;;
70796;SDS011;63842;52.144;5.360;2024-02-04T02:49:23;13.60;;;5.00;;
70796;SDS011;63842;52.144;5.360;2024-02-04T02:51:51;13.68;;;4.80;;
70796;SDS011;63842;52.144;5.360;2024-02-04T02:54:19;13.10;;;4.80;;
70796;SDS011;63842;52.144;5.360;2024-02-04T02:56:46;14.02;;;5.10;;
70796;SDS011;63842;52.144;5.360;2024-02-04T02:59:14;13.82;;;5.15;;
70796;SDS011;63842;52.144;5.360;2024-02-04T03:01:42;15.07;;;4.88;;
70796;SDS011;63842;52.144;5.360;2024-02-04T03:04:09;16.63;;;4.68;;
70796;SDS011;63842;52.144;5.360;2024-02-04T03:06:37;15.02;;;4.88;;
70796;SDS011;63842;52.144;5.360;2024-02-04T03:09:04;12.45;;;4.72;;
70796;SDS011;63842;52.144;5.360;2024-02-04T03:11:32;14.20;;;5.15;;
70796;SDS011;63842;52.144;5.360;2024-02-04T03:14:00;15.35;;;5.47;;
70796;SDS011;63842;52.144;5.360;2024-02-04T03:16:27;15.40;;;5.47;;
70796;SDS011;63842;52.144;5.360;2024-02-04T03:18:55;16.00;;;5.50;;
70796;SDS011;63842;52.144;5.360;2024-02-04T03:21:22;14.85;;;5.80;;
70796;SDS011;63842;52.144;5.360;2024-02-04T03:23:50;16.73;;;5.57;;
70796;SDS011;63842;52.144;5.360;2024-02-04T03:26:17;17.73;;;6.63;;
70796;SDS011;63842;52.144;5.360;2024-02-04T03:28:49;16.80;;;5.88;;
70796;SDS011;63842;52.144;5.360;2024-02-04T03:31:20;15.00;;;5.60;;
70796;SDS011;63842;52.144;5.360;2024-02-04T03:33:48;15.63;;;5.93;;
70796;SDS011;63842;52.144;5.360;2024-02-04T03:36:18;16.25;;;5.45;;
70796;SDS011;63842;52.144;5.360;2024-02-04T03:38:48;17.60;;;5.15;;
70796;SDS011;63842;52.144;5.360;2024-02-04T03:41:15;14.40;;;5.40;;
70796;SDS011;63842;52.144;5.360;2024-02-04T03:43:43;15.05;;;4.50;;
70796;SDS011;63842;52.144;5.360;2024-02-04T03:46:14;13.48;;;4.57;;
70796;SDS011;63842;52.144;5.360;2024-02-04T03:48:42;11.63;;;4.05;;
70796;SDS011;63842;52.144;5.360;2024-02-04T03:51:17;11.45;;;4.45;;
70796;SDS011;63842;52.144;5.360;2024-02-04T03:53:47;11.48;;;4.03;;
70796;SDS011;63842;52.144;5.360;2024-02-04T03:56:15;14.27;;;3.85;;
70796;SDS011;63842;52.144;5.360;2024-02-04T03:58:42;13.75;;;3.60;;
70796;SDS011;63842;52.144;5.360;2024-02-04T04:01:13;15.57;;;3.20;;
70796;SDS011;63842;52.144;5.360;2024-02-04T04:03:41;10.40;;;2.75;;
70796;SDS011;63842;52.144;5.360;2024-02-04T04:06:09;10.95;;;3.13;;
70796;SDS011;63842;52.144;5.360;2024-02-04T04:08:37;12.45;;;3.05;;
70796;SDS011;63842;52.144;5.360;2024-02-04T04:11:06;10.52;;;2.92;;
70796;SDS011;63842;52.144;5.360;2024-02-04T04:13:34;10.27;;;2.60;;
70796;SDS011;63842;52.144;5.360;2024-02-04T04:16:02;12.40;;;2.75;;
70796;SDS011;63842;52.144;5.360;2024-02-04T04:18:30;10.32;;;2.50;;
70796;SDS011;63842;52.144;5.360;2024-02-04T04:20:58;10.45;;;2.78;;
70796;SDS011;63842;52.144;5.360;2024-02-04T04:23:26;9.52;;;2.45;;
70796;SDS011;63842;52.144;5.360;2024-02-04T04:25:53;7.97;;;2.42;;
70796;SDS011;63842;52.144;5.360;2024-02-04T04:28:21;9.77;;;2.80;;
70796;SDS011;63842;52.144;5.360;2024-02-04T04:30:48;8.88;;;2.75;;
70796;SDS011;63842;52.144;5.360;2024-02-04T04:33:16;9.15;;;2.65;;
70796;SDS011;63842;52.144;5.360;2024-02-04T04:35:43;11.88;;;2.90;;
70796;SDS011;63842;52.144;5.360;2024-02-04T04:38:10;11.32;;;3.20;;
70796;SDS011;63842;52.144;5.360;2024-02-04T04:40:38;11.75;;;2.97;;
70796;SDS011;63842;52.144;5.360;2024-02-04T04:43:07;11.68;;;2.85;;
70796;SDS011;63842;52.144;5.360;2024-02-04T04:45:34;10.88;;;2.90;;
70796;SDS011;63842;52.144;5.360;2024-02-04T04:48:02;13.38;;;2.90;;
70796;SDS011;63842;52.144;5.360;2024-02-04T04:50:30;10.93;;;2.97;;
70796;SDS011;63842;52.144;5.360;2024-02-04T04:52:58;11.00;;;2.97;;
70796;SDS011;63842;52.144;5.360;2024-02-04T04:55:25;12.52;;;3.47;;
70796;SDS011;63842;52.144;5.360;2024-02-04T04:57:53;11.38;;;3.22;;
70796;SDS011;63842;52.144;5.360;2024-02-04T05:00:21;11.82;;;3.05;;
70796;SDS011;63842;52.144;5.360;2024-02-04T05:02:48;10.00;;;3.08;;
70796;SDS011;63842;52.144;5.360;2024-02-04T05:05:19;10.68;;;2.90;;
70796;SDS011;63842;52.144;5.360;2024-02-04T05:07:46;9.52;;;2.92;;
70796;SDS011;63842;52.144;5.360;2024-02-04T05:10:14;9.00;;;2.83;;
70796;SDS011;63842;52.144;5.360;2024-02-04T05:12:41;12.15;;;3.13;;
70796;SDS011;63842;52.144;5.360;2024-02-04T05:15:09;11.55;;;2.80;;
70796;SDS011;63842;52.144;5.360;2024-02-04T05:17:37;11.77;;;2.78;;
70796;SDS011;63842;52.144;5.360;2024-02-04T05:20:04;10.35;;;2.67;;
70796;SDS011;63842;52.144;5.360;2024-02-04T05:22:34;8.95;;;2.67;;
70796;SDS011;63842;52.144;5.360;2024-02-04T05:25:01;9.38;;;2.72;;
70796;SDS011;63842;52.144;5.360;2024-02-04T05:27:31;8.43;;;3.05;;
70796;SDS011;63842;52.144;5.360;2024-02-04T05:29:59;13.02;;;3.63;;
70796;SDS011;63842;52.144;5.360;2024-02-04T05:32:26;11.95;;;3.05;;
70796;SDS011;63842;52.144;5.360;2024-02-04T05:34:54;10.70;;;3.15;;
70796;SDS011;63842;52.144;5.360;2024-02-04T05:37:21;10.57;;;3.15;;
70796;SDS011;63842;52.144;5.360;2024-02-04T05:39:49;12.07;;;3.10;;
70796;SDS011;63842;52.144;5.360;2024-02-04T05:42:16;12.38;;;3.40;;
70796;SDS011;63842;52.144;5.360;2024-02-04T05:44:44;10.80;;;3.42;;
70796;SDS011;63842;52.144;5.360;2024-02-04T05:47:11;11.75;;;3.50;;
70796;SDS011;63842;52.144;5.360;2024-02-04T05:49:39;15.02;;;3.88;;
70796;SDS011;63842;52.144;5.360;2024-02-04T05:52:07;16.00;;;3.60;;
70796;SDS011;63842;52.144;5.360;2024-02-04T05:54:38;13.30;;;3.80;;
70796;SDS011;63842;52.144;5.360;2024-02-04T05:57:06;14.48;;;3.58;;
70796;SDS011;63842;52.144;5.360;2024-02-04T05:59:33;13.27;;;3.30;;
70796;SDS011;63842;52.144;5.360;2024-02-04T06:02:01;11.60;;;3.38;;
70796;SDS011;63842;52.144;5.360;2024-02-04T06:04:28;11.15;;;3.58;;
70796;SDS011;63842;52.144;5.360;2024-02-04T06:06:56;13.07;;;3.42;;
70796;SDS011;63842;52.144;5.360;2024-02-04T06:09:24;13.05;;;3.28;;
70796;SDS011;63842;52.144;5.360;2024-02-04T06:11:51;11.02;;;3.08;;
70796;SDS011;63842;52.144;5.360;2024-02-04T06:14:19;10.63;;;3.05;;
70796;SDS011;63842;52.144;5.360;2024-02-04T06:16:46;10.75;;;2.92;;
70796;SDS011;63842;52.144;5.360;2024-02-04T06:19:13;11.52;;;3.00;;
70796;SDS011;63842;52.144;5.360;2024-02-04T06:21:41;10.73;;;3.47;;
70796;SDS011;63842;52.144;5.360;2024-02-04T06:24:09;11.73;;;3.47;;
70796;SDS011;63842;52.144;5.360;2024-02-04T06:26:39;10.45;;;3.30;;
70796;SDS011;63842;52.144;5.360;2024-02-04T06:29:07;11.07;;;3.70;;
70796;SDS011;63842;52.144;5.360;2024-02-04T06:31:34;13.60;;;3.80;;
70796;SDS011;63842;52.144;5.360;2024-02-04T06:34:02;12.45;;;3.10;;
70796;SDS011;63842;52.144;5.360;2024-02-04T06:36:29;12.15;;;4.15;;
70796;SDS011;63842;52.144;5.360;2024-02-04T06:38:57;12.40;;;3.70;;
70796;SDS011;63842;52.144;5.360;2024-02-04T06:41:24;11.93;;;3.90;;
70796;SDS011;63842;52.144;5.360;2024-02-04T06:43:51;13.45;;;4.78;;
70796;SDS011;63842;52.144;5.360;2024-02-04T06:46:28;13.10;;;5.35;;
70796;SDS011;63842;52.144;5.360;2024-02-04T06:48:56;14.00;;;5.35;;
70796;SDS011;63842;52.144;5.360;2024-02-04T06:51:23;11.25;;;4.68;;
70796;SDS011;63842;52.144;5.360;2024-02-04T06:53:51;12.13;;;5.00;;
70796;SDS011;63842;52.144;5.360;2024-02-04T06:56:18;14.63;;;5.25;;
70796;SDS011;63842;52.144;5.360;2024-02-04T06:58:46;16.00;;;5.20;;
70796;SDS011;63842;52.144;5.360;2024-02-04T07:01:14;16.10;;;5.55;;
70796;SDS011;63842;52.144;5.360;2024-02-04T07:03:42;20.85;;;6.38;;
70796;SDS011;63842;52.144;5.360;2024-02-04T07:06:09;16.92;;;6.30;;
70796;SDS011;63842;52.144;5.360;2024-02-04T07:08:37;16.33;;;5.88;;
70796;SDS011;63842;52.144;5.360;2024-02-04T07:11:04;19.27;;;6.60;;
70796;SDS011;63842;52.144;5.360;2024-02-04T07:13:32;17.98;;;6.47;;
70796;SDS011;63842;52.144;5.360;2024-02-04T07:15:59;19.23;;;6.72;;
70796;SDS011;63842;52.144;5.360;2024-02-04T07:18:27;16.88;;;6.60;;
70796;SDS011;63842;52.144;5.360;2024-02-04T07:20:54;18.00;;;6.75;;
70796;SDS011;63842;52.144;5.360;2024-02-04T07:23:22;17.17;;;6.40;;
70796;SDS011;63842;52.144;5.360;2024-02-04T07:25:49;17.02;;;6.18;;
70796;SDS011;63842;52.144;5.360;2024-02-04T07:28:17;17.33;;;6.22;;
70796;SDS011;63842;52.144;5.360;2024-02-04T07:30:44;14.40;;;5.95;;
70796;SDS011;63842;52.144;5.360;2024-02-04T07:33:12;19.15;;;6.32;;
70796;SDS011;63842;52.144;5.360;2024-02-04T07:35:40;14.48;;;6.10;;
70796;SDS011;63842;52.144;5.360;2024-02-04T07:38:07;17.38;;;6.82;;
70796;SDS011;63842;52.144;5.360;2024-02-04T07:40:34;16.67;;;6.40;;
70796;SDS011;63842;52.144;5.360;2024-02-04T07:43:02;17.50;;;6.45;;
70796;SDS011;63842;52.144;5.360;2024-02-04T07:45:30;13.90;;;6.40;;
70796;SDS011;63842;52.144;5.360;2024-02-04T07:47:57;14.63;;;5.93;;
70796;SDS011;63842;52.144;5.360;2024-02-04T07:50:24;18.13;;;6.07;;
70796;SDS011;63842;52.144;5.360;2024-02-04T07:52:52;16.40;;;6.32;;
70796;SDS011;63842;52.144;5.360;2024-02-04T07:55:20;17.63;;;6.10;;
70796;SDS011;63842;52.144;5.360;2024-02-04T07:57:48;13.18;;;4.95;;
70796;SDS011;63842;52.144;5.360;2024-02-04T08:00:16;13.82;;;5.20;;
70796;SDS011;63842;52.144;5.360;2024-02-04T08:02:47;13.57;;;5.10;;
70796;SDS011;63842;52.144;5.360;2024-02-04T08:05:14;13.35;;;4.90;;
70796;SDS011;63842;52.144;5.360;2024-02-04T08:07:42;11.85;;;4.35;;
70796;SDS011;63842;52.144;5.360;2024-02-04T08:10:10;11.20;;;4.18;;
70796;SDS011;63842;52.144;5.360;2024-02-04T08:12:37;11.52;;;4.07;;
70796;SDS011;63842;52.144;5.360;2024-02-04T08:15:05;12.80;;;3.72;;
70796;SDS011;63842;52.144;5.360;2024-02-04T08:17:32;10.30;;;3.17;;
70796;SDS011;63842;52.144;5.360;2024-02-04T08:20:00;8.63;;;3.35;;
70796;SDS011;63842;52.144;5.360;2024-02-04T08:22:28;8.80;;;3.03;;
70796;SDS011;63842;52.144;5.360;2024-02-04T08:24:58;8.68;;;2.83;;
70796;SDS011;63842;52.144;5.360;2024-02-04T08:27:28;7.63;;;2.83;;
70796;SDS011;63842;52.144;5.360;2024-02-04T08:29:55;7.35;;;2.70;;
70796;SDS011;63842;52.144;5.360;2024-02-04T08:32:24;9.35;;;2.55;;
70796;SDS011;63842;52.144;5.360;2024-02-04T08:34:53;7.40;;;2.25;;
70796;SDS011;63842;52.144;5.360;2024-02-04T08:37:21;8.98;;;2.67;;
70796;SDS011;63842;52.144;5.360;2024-02-04T08:39:53;9.18;;;2.80;;
70796;SDS011;63842;52.144;5.360;2024-02-04T08:42:21;9.15;;;2.40;;
70796;SDS011;63842;52.144;5.360;2024-02-04T08:44:48;10.30;;;3.13;;
70796;SDS011;63842;52.144;5.360;2024-02-04T08:47:16;10.88;;;3.25;;
70796;SDS011;63842;52.144;5.360;2024-02-04T08:49:44;8.52;;;2.63;;
70796;SDS011;63842;52.144;5.360;2024-02-04T08:52:12;10.95;;;2.97;;
70796;SDS011;63842;52.144;5.360;2024-02-04T08:54:39;11.45;;;3.35;;
70796;SDS011;63842;52.144;5.360;2024-02-04T08:57:07;9.52;;;3.15;;
70796;SDS011;63842;52.144;5.360;2024-02-04T08:59:34;7.32;;;2.72;;
70796;SDS011;63842;52.144;5.360;2024-02-04T09:02:02;10.70;;;2.95;;
70796;SDS011;63842;52.144;5.360;2024-02-04T09:04:35;8.82;;;3.42;;
70796;SDS011;63842;52.144;5.360;2024-02-04T09:07:07;12.10;;;3.70;;
70796;SDS011;63842;52.144;5.360;2024-02-04T09:09:35;9.90;;;3.55;;
70796;SDS011;63842;52.144;5.360;2024-02-04T09:12:02;9.85;;;3.85;;
70796;SDS011;63842;52.144;5.360;2024-02-04T09:14:30;7.63;;;3.42;;
70796;SDS011;63842;52.144;5.360;2024-02-04T09:16:57;13.05;;;3.42;;
70796;SDS011;63842;52.144;5.360;2024-02-04T09:19:24;9.77;;;3.60;;
70796;SDS011;63842;52.144;5.360;2024-02-04T09:21:52;8.60;;;3.50;;
70796;SDS011;63842;52.144;5.360;2024-02-04T09:24:20;10.27;;;3.70;;
70796;SDS011;63842;52.144;5.360;2024-02-04T09:26:47;9.35;;;3.20;;
70796;SDS011;63842;52.144;5.360;2024-02-04T09:29:14;9.68;;;3.20;;
70796;SDS011;63842;52.144;5.360;2024-02-04T09:31:43;9.02;;;2.92;;
70796;SDS011;63842;52.144;5.360;2024-02-04T09:34:11;8.43;;;2.90;;
70796;SDS011;63842;52.144;5.360;2024-02-04T09:36:38;9.05;;;2.50;;
70796;SDS011;63842;52.144;5.360;2024-02-04T09:39:06;6.82;;;2.22;;
70796;SDS011;63842;52.144;5.360;2024-02-04T09:41:34;7.55;;;2.30;;
70796;SDS011;63842;52.144;5.360;2024-02-04T09:44:11;8.70;;;2.58;;
70796;SDS011;63842;52.144;5.360;2024-02-04T09:46:42;6.00;;;1.90;;
70796;SDS011;63842;52.144;5.360;2024-02-04T09:49:10;8.65;;;2.22;;
70796;SDS011;63842;52.144;5.360;2024-02-04T09:51:39;6.47;;;1.90;;
70796;SDS011;63842;52.144;5.360;2024-02-04T09:54:13;7.20;;;1.83;;
70796;SDS011;63842;52.144;5.360;2024-02-04T09:56:43;7.60;;;1.83;;
70796;SDS011;63842;52.144;5.360;2024-02-04T09:59:11;9.43;;;2.03;;
70796;SDS011;63842;52.144;5.360;2024-02-04T10:01:38;4.75;;;1.48;;
70796;SDS011;63842;52.144;5.360;2024-02-04T10:04:07;5.05;;;1.55;;
70796;SDS011;63842;52.144;5.360;2024-02-04T10:06:34;6.22;;;1.70;;
70796;SDS011;63842;52.144;5.360;2024-02-04T10:09:02;7.05;;;1.80;;
70796;SDS011;63842;52.144;5.360;2024-02-04T10:11:30;6.28;;;1.70;;
70796;SDS011;63842;52.144;5.360;2024-02-04T10:13:57;6.47;;;1.55;;
70796;SDS011;63842;52.144;5.360;2024-02-04T10:16:26;6.45;;;1.70;;
70796;SDS011;63842;52.144;5.360;2024-02-04T10:18:53;4.82;;;1.40;;
70796;SDS011;63842;52.144;5.360;2024-02-04T10:21:25;4.88;;;1.40;;
70796;SDS011;63842;52.144;5.360;2024-02-04T10:23:58;6.15;;;1.63;;
70796;SDS011;63842;52.144;5.360;2024-02-04T10:26:29;7.13;;;1.30;;
70796;SDS011;63842;52.144;5.360;2024-02-04T10:31:27;4.53;;;1.30;;
70796;SDS011;63842;52.144;5.360;2024-02-04T10:33:56;4.75;;;1.45;;
70796;SDS011;63842;52.144;5.360;2024-02-04T10:36:24;4.20;;;1.23;;
70796;SDS011;63842;52.144;5.360;2024-02-04T10:38:52;4.72;;;1.10;;
70796;SDS011;63842;52.144;5.360;2024-02-04T10:41:22;7.00;;;1.20;;
70796;SDS011;63842;52.144;5.360;2024-02-04T10:43:50;5.20;;;1.00;;
70796;SDS011;63842;52.144;5.360;2024-02-04T10:46:23;5.53;;;1.33;;
70796;SDS011;63842;52.144;5.360;2024-02-04T10:49:00;4.95;;;1.10;;
70796;SDS011;63842;52.144;5.360;2024-02-04T10:51:33;3.53;;;1.02;;
70796;SDS011;63842;52.144;5.360;2024-02-04T10:59:06;3.78;;;0.88;;
70796;SDS011;63842;52.144;5.360;2024-02-04T11:01:33;3.33;;;0.90;;
70796;SDS011;63842;52.144;5.360;2024-02-04T11:04:01;3.33;;;0.82;;
70796;SDS011;63842;52.144;5.360;2024-02-04T11:06:30;3.20;;;1.08;;
70796;SDS011;63842;52.144;5.360;2024-02-04T11:08:58;3.40;;;1.20;;
70796;SDS011;63842;52.144;5.360;2024-02-04T11:11:27;3.40;;;0.98;;
70796;SDS011;63842;52.144;5.360;2024-02-04T11:13:56;1.80;;;1.10;;
70796;SDS011;63842;52.144;5.360;2024-02-04T11:27:25;3.72;;;1.20;;
70796;SDS011;63842;52.144;5.360;2024-02-04T11:29:53;3.83;;;1.30;;
70796;SDS011;63842;52.144;5.360;2024-02-04T11:32:21;3.90;;;1.13;;
70796;SDS011;63842;52.144;5.360;2024-02-04T11:34:48;3.70;;;1.27;;
70796;SDS011;63842;52.144;5.360;2024-02-04T11:37:16;3.60;;;1.38;;
70796;SDS011;63842;52.144;5.360;2024-02-04T11:39:49;4.93;;;1.70;;
70796;SDS011;63842;52.144;5.360;2024-02-04T11:42:17;4.10;;;1.50;;
70796;SDS011;63842;52.144;5.360;2024-02-04T11:44:46;5.68;;;1.73;;
70796;SDS011;63842;52.144;5.360;2024-02-04T11:47:23;6.13;;;1.70;;
70796;SDS011;63842;52.144;5.360;2024-02-04T11:49:58;5.57;;;1.60;;
70796;SDS011;63842;52.144;5.360;2024-02-04T11:52:27;7.25;;;1.70;;
70796;SDS011;63842;52.144;5.360;2024-02-04T11:54:55;5.32;;;1.80;;
70796;SDS011;63842;52.144;5.360;2024-02-04T11:57:23;8.02;;;1.80;;
70796;SDS011;63842;52.144;5.360;2024-02-04T11:59:50;7.13;;;1.95;;
70796;SDS011;63842;52.144;5.360;2024-02-04T12:02:18;6.95;;;2.08;;
70796;SDS011;63842;52.144;5.360;2024-02-04T12:04:45;7.32;;;2.00;;
70796;SDS011;63842;52.144;5.360;2024-02-04T12:07:14;7.93;;;1.95;;
70796;SDS011;63842;52.144;5.360;2024-02-04T12:09:42;6.57;;;1.92;;
70796;SDS011;63842;52.144;5.360;2024-02-04T12:12:09;5.47;;;1.80;;
70796;SDS011;63842;52.144;5.360;2024-02-04T12:14:38;7.20;;;1.80;;
70796;SDS011;63842;52.144;5.360;2024-02-04T12:17:09;9.05;;;1.90;;
70796;SDS011;63842;52.144;5.360;2024-02-04T12:19:37;4.82;;;1.75;;
70796;SDS011;63842;52.144;5.360;2024-02-04T12:22:10;6.22;;;1.65;;
70796;SDS011;63842;52.144;5.360;2024-02-04T12:24:38;6.65;;;1.65;;
70796;SDS011;63842;52.144;5.360;2024-02-04T12:27:06;8.77;;;1.90;;
70796;SDS011;63842;52.144;5.360;2024-02-04T12:29:34;5.88;;;1.63;;
70796;SDS011;63842;52.144;5.360;2024-02-04T12:32:02;8.15;;;1.60;;
70796;SDS011;63842;52.144;5.360;2024-02-04T12:34:30;6.07;;;1.63;;
70796;SDS011;63842;52.144;5.360;2024-02-04T12:37:01;8.25;;;1.50;;
70796;SDS011;63842;52.144;5.360;2024-02-04T12:39:28;6.25;;;1.55;;
70796;SDS011;63842;52.144;5.360;2024-02-04T12:41:59;5.93;;;1.60;;
70796;SDS011;63842;52.144;5.360;2024-02-04T12:44:27;7.05;;;1.52;;
70796;SDS011;63842;52.144;5.360;2024-02-04T12:46:54;4.85;;;1.45;;
70796;SDS011;63842;52.144;5.360;2024-02-04T12:49:22;7.50;;;1.40;;
70796;SDS011;63842;52.144;5.360;2024-02-04T12:51:50;3.38;;;1.40;;
70796;SDS011;63842;52.144;5.360;2024-02-04T12:54:22;6.10;;;1.48;;
70796;SDS011;63842;52.144;5.360;2024-02-04T12:56:53;5.80;;;1.42;;
70796;SDS011;63842;52.144;5.360;2024-02-04T12:59:28;8.05;;;1.83;;
70796;SDS011;63842;52.144;5.360;2024-02-04T13:01:59;5.60;;;1.48;;
70796;SDS011;63842;52.144;5.360;2024-02-04T13:04:35;6.88;;;1.60;;
70796;SDS011;63842;52.144;5.360;2024-02-04T13:07:07;5.82;;;1.40;;
70796;SDS011;63842;52.144;5.360;2024-02-04T13:09:36;7.03;;;1.45;;
70796;SDS011;63842;52.144;5.360;2024-02-04T13:12:04;5.80;;;1.50;;
70796;SDS011;63842;52.144;5.360;2024-02-04T13:14:34;5.45;;;1.63;;
70796;SDS011;63842;52.144;5.360;2024-02-04T13:17:03;6.18;;;1.27;;
70796;SDS011;63842;52.144;5.360;2024-02-04T13:19:34;5.20;;;1.40;;
70796;SDS011;63842;52.144;5.360;2024-02-04T13:22:03;6.43;;;1.25;;
70796;SDS011;63842;52.144;5.360;2024-02-04T13:24:31;5.93;;;1.50;;
70796;SDS011;63842;52.144;5.360;2024-02-04T13:27:01;6.00;;;1.50;;
70796;SDS011;63842;52.144;5.360;2024-02-04T13:29:30;4.85;;;1.42;;
70796;SDS011;63842;52.144;5.360;2024-02-04T13:31:57;7.60;;;1.42;;
70796;SDS011;63842;52.144;5.360;2024-02-04T13:34:25;5.63;;;1.63;;
70796;SDS011;63842;52.144;5.360;2024-02-04T13:36:52;6.30;;;1.50;;
70796;SDS011;63842;52.144;5.360;2024-02-04T13:39:20;7.53;;;1.70;;
70796;SDS011;63842;52.144;5.360;2024-02-04T13:41:48;4.05;;;1.48;;
70796;SDS011;63842;52.144;5.360;2024-02-04T13:44:16;5.47;;;1.77;;
70796;SDS011;63842;52.144;5.360;2024-02-04T13:46:43;7.80;;;1.42;;
70796;SDS011;63842;52.144;5.360;2024-02-04T13:49:20;4.30;;;1.50;;
70796;SDS011;63842;52.144;5.360;2024-02-04T13:51:48;6.63;;;1.52;;
70796;SDS011;63842;52.144;5.360;2024-02-04T13:54:15;6.80;;;1.58;;
70796;SDS011;63842;52.144;5.360;2024-02-04T13:56:44;5.72;;;1.60;;
70796;SDS011;63842;52.144;5.360;2024-02-04T13:59:13;7.43;;;1.38;;
70796;SDS011;63842;52.144;5.360;2024-02-04T14:01:40;6.03;;;1.70;;
70796;SDS011;63842;52.144;5.360;2024-02-04T14:04:08;8.65;;;2.13;;
70796;SDS011;63842;52.144;5.360;2024-02-04T14:06:36;11.63;;;2.10;;
70796;SDS011;63842;52.144;5.360;2024-02-04T14:09:03;6.18;;;1.95;;
70796;SDS011;63842;52.144;5.360;2024-02-04T14:11:32;8.57;;;2.10;;
70796;SDS011;63842;52.144;5.360;2024-02-04T14:13:59;9.52;;;2.47;;
70796;SDS011;63842;52.144;5.360;2024-02-04T14:16:27;9.13;;;2.50;;
70796;SDS011;63842;52.144;5.360;2024-02-04T14:18:55;7.38;;;2.10;;
70796;SDS011;63842;52.144;5.360;2024-02-04T14:21:27;8.93;;;3.13;;
70796;SDS011;63842;52.144;5.360;2024-02-04T14:23:54;10.10;;;3.08;;
70796;SDS011;63842;52.144;5.360;2024-02-04T14:26:22;8.85;;;3.00;;
70796;SDS011;63842;52.144;5.360;2024-02-04T14:28:49;11.63;;;3.40;;
70796;SDS011;63842;52.144;5.360;2024-02-04T14:31:17;12.50;;;3.22;;
70796;SDS011;63842;52.144;5.360;2024-02-04T14:33:44;12.32;;;3.13;;
70796;SDS011;63842;52.144;5.360;2024-02-04T14:36:19;10.95;;;3.00;;
70796;SDS011;63842;52.144;5.360;2024-02-04T14:38:50;8.23;;;2.88;;
70796;SDS011;63842;52.144;5.360;2024-02-04T14:41:17;10.45;;;3.05;;
70796;SDS011;63842;52.144;5.360;2024-02-04T14:43:44;11.57;;;2.92;;
70796;SDS011;63842;52.144;5.360;2024-02-04T14:46:12;11.02;;;3.10;;
70796;SDS011;63842;52.144;5.360;2024-02-04T14:48:40;11.48;;;3.35;;
70796;SDS011;63842;52.144;5.360;2024-02-04T14:53:37;12.57;;;3.33;;
70796;SDS011;63842;52.144;5.360;2024-02-04T14:56:04;11.68;;;3.00;;
70796;SDS011;63842;52.144;5.360;2024-02-04T14:58:32;11.35;;;2.90;;
70796;SDS011;63842;52.144;5.360;2024-02-04T15:01:06;12.75;;;3.15;;
70796;SDS011;63842;52.144;5.360;2024-02-04T15:03:35;9.52;;;3.60;;
70796;SDS011;63842;52.144;5.360;2024-02-04T15:06:03;8.95;;;3.13;;
70796;SDS011;63842;52.144;5.360;2024-02-04T15:08:31;9.63;;;3.35;;
70796;SDS011;63842;52.144;5.360;2024-02-04T15:10:58;11.98;;;4.07;;
70796;SDS011;63842;52.144;5.360;2024-02-04T15:13:26;13.25;;;3.25;;